createdAt,value
2023-02-28T00:00:23.204Z,2.85
2023-02-28T00:02:50.749Z,2.78
2023-02-28T00:05:20.532Z,4.38
2023-02-28T00:07:48.512Z,4.15
2023-02-28T00:10:21.738Z,3.55
2023-02-28T00:12:50.192Z,3.63
2023-02-28T00:15:17.692Z,3.87
2023-02-28T00:17:45.587Z,4.00
2023-02-28T00:20:14.241Z,4.20
2023-02-28T00:22:43.823Z,3.58
2023-02-28T00:25:13.184Z,3.95
2023-02-28T00:30:10.937Z,2.65
2023-02-28T00:32:38.619Z,3.92
2023-02-28T00:35:39.863Z,3.38
2023-02-28T00:38:09.342Z,3.63
2023-02-28T00:40:36.356Z,3.13
2023-02-28T00:43:04.299Z,3.60
2023-02-28T00:45:31.543Z,3.25
2023-02-28T00:47:58.630Z,3.90
2023-02-28T00:50:26.090Z,4.45
2023-02-28T00:52:53.128Z,4.07
2023-02-28T00:55:21.002Z,3.63
2023-02-28T00:57:48.924Z,3.72
2023-02-28T01:00:16.431Z,4.03
2023-02-28T01:02:43.629Z,4.00
2023-02-28T01:05:11.354Z,3.40
2023-02-28T01:07:39.425Z,4.25
2023-02-28T01:10:06.948Z,3.67
2023-02-28T01:12:34.038Z,4.55
2023-02-28T01:15:01.137Z,3.78
2023-02-28T01:17:28.212Z,3.63
2023-02-28T01:19:57.868Z,4.00
2023-02-28T01:22:25.962Z,4.00
2023-02-28T01:24:53.082Z,4.15
2023-02-28T01:27:20.095Z,3.58
2023-02-28T01:29:47.125Z,4.18
2023-02-28T01:32:14.352Z,4.10
2023-02-28T01:34:41.487Z,4.47
2023-02-28T01:37:08.475Z,4.40
2023-02-28T01:39:35.483Z,3.67
2023-02-28T01:42:04.168Z,4.38
2023-02-28T01:45:01.677Z,5.30
2023-02-28T01:47:39.634Z,4.82
2023-02-28T01:50:12.733Z,4.22
2023-02-28T01:52:45.416Z,3.72
2023-02-28T01:55:14.175Z,4.18
2023-02-28T01:57:51.361Z,4.63
2023-02-28T02:00:23.475Z,4.35
2023-02-28T02:02:54.221Z,4.57
2023-02-28T02:05:24.226Z,4.38
2023-02-28T02:07:57.218Z,4.63
2023-02-28T02:10:42.200Z,4.68
2023-02-28T02:13:27.370Z,4.70
2023-02-28T02:16:15.548Z,4.20
2023-02-28T02:18:52.059Z,4.83
2023-02-28T02:21:47.759Z,4.95
2023-02-28T02:24:39.270Z,3.90
2023-02-28T02:27:29.937Z,4.32
2023-02-28T02:30:15.679Z,4.45
2023-02-28T02:33:05.562Z,4.68
2023-02-28T02:35:56.638Z,4.70
2023-02-28T02:38:27.262Z,3.75
2023-02-28T02:40:54.193Z,5.35
2023-02-28T02:43:27.702Z,5.30
2023-02-28T02:46:04.813Z,4.28
2023-02-28T02:48:35.365Z,4.65
2023-02-28T02:51:12.835Z,4.40
2023-02-28T02:54:31.129Z,4.25
2023-02-28T02:57:06.963Z,3.90
2023-02-28T02:59:34.861Z,4.88
2023-02-28T03:02:06.822Z,5.13
2023-02-28T03:04:41.501Z,4.30
2023-02-28T03:07:08.552Z,4.28
2023-02-28T03:09:36.755Z,4.45
2023-02-28T03:12:07.490Z,4.30
2023-02-28T03:15:11.873Z,5.40
2023-02-28T03:18:03.652Z,5.10
2023-02-28T03:20:49.276Z,6.15
2023-02-28T03:23:36.487Z,5.75
2023-02-28T03:26:19.737Z,5.68
2023-02-28T03:29:08.205Z,4.35
2023-02-28T03:31:41.854Z,6.90
2023-02-28T03:34:30.210Z,5.32
2023-02-28T03:37:07.849Z,6.23
2023-02-28T03:39:34.793Z,6.75
2023-02-28T03:42:19.224Z,5.75
2023-02-28T03:44:55.059Z,6.32
2023-02-28T03:47:44.409Z,5.88
2023-02-28T03:50:22.871Z,5.90
2023-02-28T03:52:56.131Z,6.10
2023-02-28T03:55:23.317Z,6.47
2023-02-28T03:58:14.194Z,6.32
2023-02-28T04:01:13.363Z,5.55
2023-02-28T04:06:14.076Z,4.30
2023-02-28T04:08:41.408Z,5.00
2023-02-28T04:11:20.064Z,4.45
2023-02-28T04:13:47.686Z,4.82
2023-02-28T04:16:32.025Z,5.63
2023-02-28T04:19:06.262Z,5.13
2023-02-28T04:21:40.142Z,5.05
2023-02-28T04:24:09.348Z,6.13
2023-02-28T04:26:37.902Z,5.38
2023-02-28T04:29:08.556Z,5.53
2023-02-28T04:31:35.801Z,3.88
2023-02-28T04:34:03.313Z,6.05
2023-02-28T04:36:30.824Z,5.78
2023-02-28T04:38:57.918Z,3.45
2023-02-28T04:41:25.335Z,5.07
2023-02-28T04:43:54.100Z,6.10
2023-02-28T04:46:21.999Z,6.18
2023-02-28T04:48:49.218Z,6.28
2023-02-28T04:51:18.268Z,5.93
2023-02-28T04:53:45.694Z,5.60
2023-02-28T04:56:18.433Z,5.35
2023-02-28T04:58:46.155Z,5.40
2023-02-28T05:01:23.588Z,5.63
2023-02-28T05:03:51.480Z,5.43
2023-02-28T05:06:19.706Z,4.65
2023-02-28T05:08:47.205Z,5.75
2023-02-28T05:11:24.482Z,5.30
2023-02-28T05:13:52.732Z,6.43
2023-02-28T05:16:20.351Z,6.05
2023-02-28T05:18:47.913Z,6.28
2023-02-28T05:21:27.226Z,6.03
2023-02-28T05:23:55.378Z,5.97
2023-02-28T05:26:22.674Z,6.95
2023-02-28T05:28:49.975Z,6.40
2023-02-28T05:31:17.092Z,5.90
2023-02-28T05:33:44.133Z,6.32
2023-02-28T05:36:11.316Z,6.47
2023-02-28T05:38:39.020Z,5.80
2023-02-28T05:41:07.998Z,6.40
2023-02-28T05:43:35.829Z,5.90
2023-02-28T05:46:10.983Z,5.55
2023-02-28T05:48:39.983Z,7.00
2023-02-28T05:51:08.439Z,6.57
2023-02-28T05:53:36.009Z,6.63
2023-02-28T05:56:03.101Z,6.00
2023-02-28T05:58:32.045Z,6.53
2023-02-28T06:01:38.218Z,6.55
2023-02-28T06:04:07.140Z,6.45
2023-02-28T06:06:38.038Z,7.30
2023-02-28T06:09:06.485Z,8.10
2023-02-28T06:11:34.205Z,6.38
2023-02-28T06:14:02.755Z,6.80
2023-02-28T06:16:31.673Z,7.20
2023-02-28T06:19:01.188Z,5.70
2023-02-28T06:21:31.616Z,6.75
2023-02-28T06:23:59.839Z,7.28
2023-02-28T06:26:27.028Z,7.65
2023-02-28T06:28:54.469Z,7.65
2023-02-28T06:31:22.199Z,7.65
2023-02-28T06:33:49.937Z,7.38
2023-02-28T06:36:18.493Z,6.00
2023-02-28T06:38:45.774Z,6.85
2023-02-28T06:41:12.753Z,7.22
2023-02-28T06:43:42.297Z,7.72
2023-02-28T06:46:12.437Z,10.25
2023-02-28T06:48:39.495Z,8.32
2023-02-28T06:51:11.801Z,9.07
2023-02-28T06:53:39.644Z,7.90
2023-02-28T06:56:09.231Z,8.05
2023-02-28T06:58:36.774Z,8.60
2023-02-28T07:01:04.276Z,10.00
2023-02-28T07:03:34.290Z,7.53
2023-02-28T07:06:02.187Z,8.07
2023-02-28T07:08:29.540Z,9.32
2023-02-28T07:10:57.054Z,9.15
2023-02-28T07:13:25.069Z,9.60
2023-02-28T07:16:04.753Z,9.60
2023-02-28T07:18:32.591Z,8.40
2023-02-28T07:20:59.682Z,9.18
2023-02-28T07:23:26.767Z,11.98
2023-02-28T07:25:53.828Z,8.98
2023-02-28T07:28:24.494Z,9.02
2023-02-28T07:30:51.724Z,10.30
2023-02-28T07:33:18.986Z,9.63
2023-02-28T07:35:46.105Z,8.75
2023-02-28T07:38:14.948Z,9.45
2023-02-28T07:40:41.960Z,9.95
2023-02-28T07:43:09.277Z,8.10
2023-02-28T07:45:36.327Z,8.30
2023-02-28T07:48:03.768Z,8.77
2023-02-28T07:50:32.251Z,8.55
2023-02-28T07:53:00.308Z,9.17
2023-02-28T07:55:27.565Z,9.32
2023-02-28T07:57:55.091Z,8.95
2023-02-28T08:00:22.931Z,8.18
2023-02-28T08:02:50.184Z,8.15
2023-02-28T08:05:18.452Z,9.27
2023-02-28T08:07:48.700Z,9.35
2023-02-28T08:10:15.867Z,9.05
2023-02-28T08:12:42.908Z,9.90
2023-02-28T08:15:10.442Z,8.50
2023-02-28T08:17:37.533Z,9.40
2023-02-28T08:20:05.769Z,9.10
2023-02-28T08:22:32.948Z,8.48
2023-02-28T08:24:59.948Z,9.43
2023-02-28T08:27:26.944Z,8.52
2023-02-28T08:29:53.945Z,11.65
2023-02-28T08:32:29.748Z,6.80
2023-02-28T08:34:57.545Z,9.63
2023-02-28T08:37:24.697Z,8.90
2023-02-28T08:39:53.976Z,7.63
2023-02-28T08:42:23.702Z,8.50
2023-02-28T08:44:50.747Z,9.32
2023-02-28T08:47:17.823Z,9.20
2023-02-28T08:49:44.814Z,8.70
2023-02-28T08:52:11.936Z,7.72
2023-02-28T08:54:39.029Z,8.50
2023-02-28T08:57:06.118Z,9.48
2023-02-28T08:59:33.733Z,9.35
2023-02-28T09:02:00.864Z,9.43
2023-02-28T09:04:28.021Z,8.43
2023-02-28T09:06:55.034Z,8.35
2023-02-28T09:09:22.033Z,8.82
2023-02-28T09:11:49.101Z,9.05
2023-02-28T09:14:18.551Z,9.02
2023-02-28T09:19:13.633Z,8.30
2023-02-28T09:21:40.940Z,8.05
2023-02-28T09:24:09.368Z,8.60
2023-02-28T09:26:42.734Z,8.93
2023-02-28T09:29:15.701Z,9.63
2023-02-28T09:31:42.675Z,14.10
2023-02-28T09:34:09.976Z,11.02
2023-02-28T09:36:45.466Z,9.63
2023-02-28T09:39:13.936Z,8.95
2023-02-28T09:41:52.052Z,6.45
2023-02-28T09:44:33.267Z,9.15
2023-02-28T09:47:32.358Z,7.65
2023-02-28T09:50:08.590Z,8.30
2023-02-28T09:52:36.389Z,8.73
2023-02-28T09:55:19.745Z,7.20
2023-02-28T09:57:47.461Z,7.30
2023-02-28T10:00:25.686Z,8.95
2023-02-28T10:03:11.399Z,8.75
2023-02-28T10:05:50.557Z,10.27
2023-02-28T10:08:26.122Z,8.85
2023-02-28T10:10:56.870Z,9.27
2023-02-28T10:13:35.938Z,9.13
2023-02-28T10:16:11.708Z,8.02
2023-02-28T10:19:24.511Z,8.80
2023-02-28T10:22:00.475Z,9.13
2023-02-28T10:24:44.143Z,9.30
2023-02-28T10:27:17.406Z,8.80
2023-02-28T10:29:46.971Z,8.02
2023-02-28T10:34:43.693Z,8.30
2023-02-28T10:37:13.940Z,8.45
2023-02-28T10:39:47.772Z,8.55
2023-02-28T10:42:29.626Z,8.35
2023-02-28T10:45:18.608Z,7.95
2023-02-28T10:48:05.542Z,8.23
2023-02-28T10:50:50.981Z,8.00
2023-02-28T10:53:26.977Z,9.18
2023-02-28T10:56:11.996Z,9.70
2023-02-28T10:59:24.069Z,9.70
2023-02-28T11:01:53.926Z,11.10
2023-02-28T11:04:36.889Z,8.68
2023-02-28T11:07:17.912Z,10.10
2023-02-28T11:09:50.326Z,8.55
2023-02-28T11:12:43.443Z,8.40
2023-02-28T11:15:55.339Z,8.82
2023-02-28T11:18:22.370Z,9.02
2023-02-28T11:20:54.647Z,9.45
2023-02-28T11:27:51.363Z,8.52
2023-02-28T11:30:31.034Z,9.07
2023-02-28T11:35:45.308Z,8.30
2023-02-28T11:38:14.138Z,8.23
2023-02-28T11:44:57.365Z,9.35
2023-02-28T11:47:46.079Z,9.73
2023-02-28T11:51:16.647Z,6.60
2023-02-28T11:53:55.544Z,9.27
2023-02-28T11:56:34.205Z,9.38
2023-02-28T11:59:12.737Z,8.53
2023-02-28T12:01:47.790Z,9.07
2023-02-28T12:04:33.501Z,9.52
2023-02-28T12:07:26.514Z,8.73
2023-02-28T12:09:58.733Z,8.65
2023-02-28T12:12:39.409Z,9.27
2023-02-28T12:15:09.452Z,9.13
2023-02-28T12:17:46.193Z,8.77
2023-02-28T12:20:25.814Z,8.68
2023-02-28T12:23:05.328Z,9.50
2023-02-28T12:25:32.310Z,8.68
2023-02-28T12:28:00.516Z,9.07
2023-02-28T12:30:34.934Z,8.77
2023-02-28T12:33:13.512Z,9.05
2023-02-28T12:35:56.714Z,9.00
2023-02-28T12:39:05.088Z,9.60
2023-02-28T12:41:52.216Z,9.15
2023-02-28T12:44:28.670Z,8.40
2023-02-28T12:47:00.965Z,9.35
2023-02-28T12:49:28.075Z,11.35
2023-02-28T12:51:55.118Z,8.57
2023-02-28T12:54:28.774Z,9.52
2023-02-28T12:57:19.452Z,10.05
2023-02-28T12:59:57.961Z,8.18
2023-02-28T13:02:47.985Z,8.90
2023-02-28T13:05:27.358Z,8.65
2023-02-28T13:08:21.789Z,9.98
2023-02-28T13:10:55.284Z,9.85
2023-02-28T13:13:26.901Z,9.05
2023-02-28T13:16:11.734Z,9.07
2023-02-28T13:18:41.189Z,10.63
2023-02-28T13:21:10.605Z,12.70
2023-02-28T13:23:48.176Z,10.00
2023-02-28T13:26:15.163Z,8.43
2023-02-28T13:28:58.682Z,10.10
2023-02-28T13:31:26.491Z,15.20
2023-02-28T13:34:14.475Z,13.10
2023-02-28T13:40:38.862Z,9.25
2023-02-28T13:45:40.678Z,9.05
2023-02-28T13:48:20.387Z,8.18
2023-02-28T13:53:14.276Z,8.63
2023-02-28T13:55:49.864Z,9.20
2023-02-28T13:58:44.463Z,9.68
2023-02-28T14:01:52.561Z,8.82
2023-02-28T14:04:51.571Z,8.18
2023-02-28T14:07:36.401Z,9.23
2023-02-28T14:11:13.189Z,9.00
2023-02-28T14:14:58.538Z,9.40
2023-02-28T14:18:22.697Z,8.65
2023-02-28T14:21:31.992Z,9.18
2023-02-28T14:25:01.728Z,9.57
2023-02-28T14:27:51.078Z,9.25
2023-02-28T14:30:52.080Z,8.88
2023-02-28T14:33:47.557Z,9.52
2023-02-28T14:36:33.447Z,14.30
2023-02-28T14:39:13.042Z,12.43
2023-02-28T14:42:45.049Z,9.50
2023-02-28T14:45:40.967Z,9.43
2023-02-28T14:48:11.513Z,8.95
2023-02-28T14:50:38.828Z,9.02
2023-02-28T14:53:27.087Z,10.18
2023-02-28T14:55:54.373Z,9.73
2023-02-28T14:58:27.257Z,9.60
2023-02-28T15:01:01.861Z,10.15
2023-02-28T15:03:37.221Z,9.45
2023-02-28T15:06:56.967Z,9.23
2023-02-28T15:09:24.040Z,9.30
2023-02-28T15:11:51.614Z,8.90
2023-02-28T15:14:22.388Z,9.48
2023-02-28T15:16:56.999Z,9.95
2023-02-28T15:19:37.231Z,9.18
2023-02-28T15:22:08.629Z,9.05
2023-02-28T15:24:43.791Z,9.18
2023-02-28T15:27:22.247Z,9.13
2023-02-28T15:29:54.639Z,9.60
2023-02-28T15:32:29.556Z,9.18
2023-02-28T15:34:57.970Z,10.15
2023-02-28T15:37:46.187Z,9.23
2023-02-28T15:40:18.820Z,9.32
2023-02-28T15:43:01.091Z,8.88
2023-02-28T15:45:32.894Z,9.85
2023-02-28T15:48:05.675Z,9.30
2023-02-28T15:50:40.608Z,9.73
2023-02-28T15:53:18.521Z,9.25
2023-02-28T15:55:46.193Z,9.50
2023-02-28T15:58:14.287Z,9.20
2023-02-28T16:00:46.662Z,9.85
2023-02-28T16:03:41.836Z,9.10
2023-02-28T16:06:31.856Z,9.30
2023-02-28T16:08:58.894Z,10.05
2023-02-28T16:11:26.114Z,9.60
2023-02-28T16:13:54.096Z,10.38
2023-02-28T16:16:27.109Z,11.05
2023-02-28T16:18:54.560Z,10.90
2023-02-28T16:21:21.811Z,10.73
2023-02-28T16:23:48.873Z,11.63
2023-02-28T16:26:22.212Z,12.82
2023-02-28T16:28:49.770Z,12.20
2023-02-28T16:31:17.699Z,18.10
2023-02-28T16:33:46.405Z,16.20
2023-02-28T16:36:22.731Z,12.70
2023-02-28T16:38:49.764Z,11.45
2023-02-28T16:42:13.011Z,11.20
2023-02-28T16:44:41.409Z,10.88
2023-02-28T16:47:11.948Z,10.80
2023-02-28T16:49:39.471Z,11.90
2023-02-28T16:52:07.104Z,10.60
2023-02-28T16:54:34.150Z,10.27
2023-02-28T16:57:01.858Z,12.98
2023-02-28T16:59:30.529Z,11.93
2023-02-28T17:02:00.517Z,11.15
2023-02-28T17:04:28.338Z,12.05
2023-02-28T17:07:31.646Z,10.68
2023-02-28T17:09:58.647Z,9.98
2023-02-28T17:12:25.847Z,11.40
2023-02-28T17:14:52.918Z,11.50
2023-02-28T17:17:22.762Z,10.10
2023-02-28T17:19:49.937Z,10.50
2023-02-28T17:22:16.980Z,9.82
2023-02-28T17:24:44.068Z,11.07
2023-02-28T17:27:13.859Z,13.40
2023-02-28T17:29:41.202Z,12.95
2023-02-28T17:32:17.230Z,12.02
2023-02-28T17:34:47.144Z,11.00
2023-02-28T17:37:14.467Z,13.10
2023-02-28T17:39:41.573Z,12.85
2023-02-28T17:42:27.043Z,14.52
2023-02-28T17:44:54.048Z,15.05
2023-02-28T17:47:21.037Z,18.45
2023-02-28T17:49:48.047Z,28.90
2023-02-28T17:52:15.024Z,27.25
2023-02-28T17:54:42.058Z,18.52
2023-02-28T17:57:15.566Z,17.02
2023-02-28T17:59:43.260Z,15.25
2023-02-28T18:02:14.460Z,15.77
2023-02-28T18:04:41.704Z,15.50
2023-02-28T18:07:11.731Z,17.85
2023-02-28T18:09:38.805Z,18.38
2023-02-28T18:12:06.122Z,17.73
2023-02-28T18:14:33.136Z,18.08
2023-02-28T18:17:00.163Z,16.55
2023-02-28T18:19:27.165Z,17.88
2023-02-28T18:21:54.934Z,14.60
2023-02-28T18:24:24.656Z,14.50
2023-02-28T18:26:52.575Z,18.80
2023-02-28T18:29:23.333Z,20.08
2023-02-28T18:31:54.235Z,15.50
2023-02-28T18:34:22.958Z,16.67
2023-02-28T18:36:51.596Z,15.50
2023-02-28T18:39:19.325Z,18.73
2023-02-28T18:41:46.470Z,26.48
2023-02-28T18:45:15.532Z,19.33
2023-02-28T18:47:42.519Z,12.98
2023-02-28T18:50:10.417Z,12.00
2023-02-28T18:52:39.063Z,12.40
2023-02-28T18:55:08.534Z,13.63
2023-02-28T19:00:02.569Z,16.65
2023-02-28T19:02:29.556Z,22.48
2023-02-28T19:05:25.613Z,24.40
2023-02-28T19:07:52.538Z,17.67
2023-02-28T19:10:19.836Z,14.90
2023-02-28T19:12:47.202Z,14.45
2023-02-28T19:15:14.209Z,17.25
2023-02-28T19:17:41.279Z,15.45
2023-02-28T19:20:09.947Z,13.57
2023-02-28T19:22:37.231Z,13.63
2023-02-28T19:25:08.309Z,13.23
2023-02-28T19:27:35.354Z,14.77
2023-02-28T19:30:03.038Z,13.38
2023-02-28T19:32:30.178Z,12.68
2023-02-28T19:34:57.235Z,12.73
2023-02-28T19:37:24.330Z,12.45
2023-02-28T19:39:54.794Z,14.20
2023-02-28T19:42:22.145Z,14.13
2023-02-28T19:44:50.130Z,14.43
2023-02-28T19:47:17.384Z,15.18
2023-02-28T19:49:44.454Z,15.90
2023-02-28T19:52:14.925Z,16.13
2023-02-28T19:54:42.712Z,18.13
2023-02-28T19:57:09.697Z,17.42
2023-02-28T19:59:39.826Z,16.02
2023-02-28T20:02:18.352Z,13.95
2023-02-28T20:04:50.197Z,13.70
2023-02-28T20:07:20.411Z,13.10
2023-02-28T20:09:48.539Z,11.93
2023-02-28T20:12:25.184Z,11.73
2023-02-28T20:14:56.223Z,13.18
2023-02-28T20:17:24.289Z,13.25
2023-02-28T20:19:51.745Z,14.18
2023-02-28T20:22:19.249Z,13.10
2023-02-28T20:25:49.592Z,12.35
2023-02-28T20:28:17.395Z,12.98
2023-02-28T20:30:46.073Z,13.15
2023-02-28T20:33:13.270Z,14.60
2023-02-28T20:35:40.396Z,12.75
2023-02-28T20:38:09.027Z,13.30
2023-02-28T20:40:36.552Z,12.40
2023-02-28T20:43:04.648Z,11.50
2023-02-28T20:45:32.454Z,11.73
2023-02-28T20:48:00.261Z,12.60
2023-02-28T20:50:27.836Z,12.95
2023-02-28T20:52:55.398Z,14.02
2023-02-28T20:55:22.552Z,14.02
2023-02-28T20:57:50.220Z,14.43
2023-02-28T21:00:20.682Z,13.93
2023-02-28T21:02:48.185Z,14.38
2023-02-28T21:05:15.781Z,14.57
2023-02-28T21:07:42.923Z,21.88
2023-02-28T21:10:10.822Z,17.42
2023-02-28T21:12:38.158Z,14.48
2023-02-28T21:15:05.860Z,14.23
2023-02-28T21:17:33.484Z,15.23
2023-02-28T21:20:00.970Z,16.13
2023-02-28T21:22:28.248Z,15.32
2023-02-28T21:24:55.736Z,13.30
2023-02-28T21:27:23.081Z,12.93
2023-02-28T21:29:50.369Z,12.80
2023-02-28T21:32:18.030Z,12.82
2023-02-28T21:34:45.659Z,12.85
2023-02-28T21:37:13.016Z,12.80
2023-02-28T21:39:40.123Z,13.80
2023-02-28T21:42:07.180Z,12.90
2023-02-28T21:44:34.802Z,13.68
2023-02-28T21:47:02.333Z,15.25
2023-02-28T21:49:29.822Z,16.50
2023-02-28T21:51:57.617Z,15.88
2023-02-28T21:54:25.118Z,18.10
2023-02-28T21:56:52.279Z,17.15
2023-02-28T21:59:19.897Z,14.60
2023-02-28T22:01:49.186Z,13.82
2023-02-28T22:04:21.415Z,13.73
2023-02-28T22:06:57.830Z,12.48
2023-02-28T22:09:25.937Z,13.23
2023-02-28T22:11:52.947Z,13.20
2023-02-28T22:14:20.037Z,13.20
2023-02-28T22:16:51.848Z,13.55
2023-02-28T22:19:21.761Z,13.95
2023-02-28T22:21:49.013Z,13.68
2023-02-28T22:24:18.090Z,13.02
2023-02-28T22:26:45.273Z,14.20
2023-02-28T22:30:05.932Z,13.82
2023-02-28T22:32:33.005Z,13.10
2023-02-28T22:35:00.007Z,12.68
2023-02-28T22:37:27.026Z,12.77
2023-02-28T22:39:54.057Z,13.25
2023-02-28T22:42:21.577Z,14.50
2023-02-28T22:44:51.155Z,14.20
2023-02-28T22:47:18.383Z,13.63
2023-02-28T22:49:45.481Z,12.95
2023-02-28T22:52:12.521Z,14.15
2023-02-28T22:54:39.984Z,14.45
2023-02-28T22:57:06.946Z,14.27
2023-02-28T22:59:34.010Z,15.10
2023-02-28T23:02:01.063Z,12.98
2023-02-28T23:04:28.099Z,13.82
2023-02-28T23:06:55.157Z,13.52
2023-02-28T23:09:25.276Z,13.82
2023-02-28T23:11:53.526Z,14.82
2023-02-28T23:14:21.352Z,14.35
2023-02-28T23:16:50.964Z,12.85
2023-02-28T23:19:24.800Z,14.35
2023-02-28T23:21:51.910Z,13.45
2023-02-28T23:24:21.315Z,14.10
2023-02-28T23:29:18.948Z,14.35
2023-02-28T23:31:45.965Z,14.32
2023-02-28T23:34:13.622Z,15.68
2023-02-28T23:36:47.799Z,16.25
2023-02-28T23:39:17.524Z,15.13
2023-02-28T23:41:44.700Z,13.48
2023-02-28T23:44:16.983Z,14.82
2023-02-28T23:46:51.965Z,16.15
2023-02-28T23:49:20.117Z,15.35
2023-02-28T23:51:49.469Z,14.85
2023-02-28T23:54:17.671Z,14.63
2023-02-28T23:56:45.061Z,15.57
2023-02-28T23:59:12.233Z,13.63
